Time;durP1;ratioP1;P1;durP2;ratioP2;P2;SDS_P1;SDS_P2;PMS_P1;PMS_P2;Temp;Humidity;BMP_temperature;BMP_pressure;BME280_temperature;BME280_humidity;BME280_pressure;Samples;Min_cycle;Max_cycle;Signal;HPM_P1;HPM_P2
2022/11/22 00:01:12;;;;;;;12.33;3.17;;;9.80;92.10;;;;;;4950398;29;20303;-96
2022/11/22 00:03:52;;;;;;;9.67;2.83;;;9.80;92.10;;;;;;4947289;29;20205;-95
2022/11/22 00:09:28;;;;;;;10.23;3.87;;;9.90;92.30;;;;;;4945784;29;20912;-93
2022/11/22 00:11:59;;;;;;;8.67;2.93;;;9.90;92.30;;;;;;4948759;29;20239;-96
2022/11/22 00:14:28;;;;;;;12.83;3.17;;;9.90;92.10;;;;;;4937427;29;20207;-94
2022/11/22 00:17:06;;;;;;;10.20;3.33;;;9.90;92.10;;;;;;4929011;29;20203;-96
2022/11/22 00:19:44;;;;;;;8.13;2.13;;;9.90;92.00;;;;;;4943745;29;20214;-96
2022/11/22 00:22:15;;;;;;;13.10;3.43;;;9.90;92.00;;;;;;4942215;29;20541;-95
2022/11/22 00:24:46;;;;;;;10.63;3.37;;;9.90;91.90;;;;;;4938568;29;20296;-94
2022/11/22 00:27:15;;;;;;;15.70;4.43;;;9.90;91.80;;;;;;4937435;29;20209;-94
2022/11/22 00:29:44;;;;;;;7.70;2.83;;;9.90;91.90;;;;;;4938699;29;20218;-95
2022/11/22 00:32:15;;;;;;;11.13;3.33;;;9.90;91.90;;;;;;4940523;29;20236;-96
2022/11/22 00:34:48;;;;;;;8.20;2.57;;;9.80;91.90;;;;;;4926271;29;20208;-95
2022/11/22 00:37:20;;;;;;;19.23;4.63;;;9.90;92.00;;;;;;4942760;29;20214;-96
2022/11/22 00:39:56;;;;;;;12.77;3.07;;;9.90;92.00;;;;;;4950804;29;20226;-95
2022/11/22 00:42:26;;;;;;;14.37;3.03;;;9.80;91.80;;;;;;4929086;29;20731;-95
2022/11/22 00:44:57;;;;;;;13.00;3.30;;;9.80;91.80;;;;;;4944545;29;20230;-95
2022/11/22 00:47:33;;;;;;;10.00;2.97;;;9.80;91.80;;;;;;4942472;29;20204;-95
2022/11/22 00:50:13;;;;;;;8.27;2.83;;;9.80;91.80;;;;;;4944599;29;20220;-96
2022/11/22 00:52:48;;;;;;;14.77;3.43;;;9.80;91.70;;;;;;4939645;29;20217;-96
2022/11/22 00:55:41;;;;;;;11.40;3.67;;;9.80;91.60;;;;;;4940931;29;20210;-96
2022/11/22 00:58:11;;;;;;;12.23;3.20;;;9.80;91.60;;;;;;4935893;29;20575;-94
2022/11/22 01:00:50;;;;;;;10.60;2.50;;;9.80;91.60;;;;;;4943967;29;20203;-93
2022/11/22 01:03:29;;;;;;;11.27;2.90;;;9.70;91.50;;;;;;4944567;29;20202;-96
2022/11/22 01:06:02;;;;;;;15.43;4.83;;;9.80;91.40;;;;;;4939671;29;20258;-93
2022/11/22 01:08:36;;;;;;;11.60;3.17;;;9.70;91.60;;;;;;4945242;29;20218;-94
2022/11/22 01:11:06;;;;;;;12.57;3.23;;;9.70;91.30;;;;;;4946045;29;20264;-95
2022/11/22 01:13:40;;;;;;;11.27;3.10;;;9.70;91.20;;;;;;4943896;29;20208;-95
2022/11/22 01:16:17;;;;;;;12.87;3.80;;;9.70;91.30;;;;;;4942281;29;20696;-95
2022/11/22 01:18:54;;;;;;;15.23;4.03;;;9.70;91.20;;;;;;4938217;29;20215;-96
2022/11/22 01:21:29;;;;;;;16.47;4.13;;;9.70;91.00;;;;;;4937597;29;20212;-95
2022/11/22 01:23:59;;;;;;;9.93;2.63;;;9.60;90.90;;;;;;4941708;29;20204;-95
2022/11/22 01:26:26;;;;;;;9.30;3.20;;;9.60;91.00;;;;;;4939243;29;20222;-94
2022/11/22 01:28:56;;;;;;;10.97;3.17;;;9.60;90.90;;;;;;4939279;29;20203;-96
2022/11/22 01:31:29;;;;;;;12.03;3.77;;;9.50;90.80;;;;;;4934728;29;20285;-95
2022/11/22 01:33:59;;;;;;;13.10;3.53;;;9.50;90.80;;;;;;4936171;29;20207;-95
2022/11/22 01:36:36;;;;;;;14.80;3.80;;;9.50;90.80;;;;;;4939468;29;20239;-95
2022/11/22 01:39:03;;;;;;;19.23;4.70;;;9.50;90.70;;;;;;4945634;29;20215;-95
2022/11/22 01:41:31;;;;;;;17.37;4.10;;;9.50;90.80;;;;;;4945018;29;20231;-96
2022/11/22 01:44:21;;;;;;;13.13;2.50;;;9.50;90.70;;;;;;4949245;29;20198;-95
2022/11/22 01:47:03;;;;;;;12.23;3.07;;;9.40;91.00;;;;;;4944082;29;20240;-96
2022/11/22 01:49:49;;;;;;;10.63;2.97;;;9.40;90.70;;;;;;4944046;29;20221;-95
2022/11/22 01:52:23;;;;;;;15.93;3.40;;;9.40;90.70;;;;;;4937322;29;20209;-95
2022/11/22 01:55:05;;;;;;;12.20;3.17;;;9.30;90.60;;;;;;4937148;29;20223;-96
2022/11/22 01:57:37;;;;;;;14.97;4.30;;;9.40;90.70;;;;;;4937003;29;20301;-95
2022/11/22 02:00:15;;;;;;;8.87;2.83;;;9.30;90.70;;;;;;4935269;29;20317;-96
2022/11/22 02:03:00;;;;;;;10.57;3.37;;;9.40;90.70;;;;;;4935800;29;20716;-95
2022/11/22 02:05:33;;;;;;;17.67;4.13;;;9.30;90.70;;;;;;4936296;29;20235;-95
2022/11/22 02:08:20;;;;;;;9.97;2.77;;;9.30;90.60;;;;;;4939563;29;20270;-94
2022/11/22 02:10:56;;;;;;;8.07;2.73;;;9.30;90.60;;;;;;4936109;29;20856;-96
2022/11/22 02:13:27;;;;;;;11.97;3.30;;;9.20;90.60;;;;;;4931440;29;20265;-95
2022/11/22 02:16:00;;;;;;;14.03;3.87;;;9.20;90.70;;;;;;4926173;29;20210;-96
2022/11/22 02:18:31;;;;;;;11.93;3.17;;;9.20;90.60;;;;;;4938042;29;20204;-96
2022/11/22 02:21:21;;;;;;;14.47;3.50;;;9.10;90.70;;;;;;4943463;29;20217;-96
2022/11/22 02:24:13;;;;;;;15.87;4.53;;;9.10;90.70;;;;;;4947050;29;20219;-93
2022/11/22 02:27:02;;;;;;;7.53;2.47;;;9.10;90.80;;;;;;4939401;29;20811;-95
2022/11/22 02:29:45;;;;;;;10.03;2.63;;;9.10;90.80;;;;;;4944018;29;20223;-96
2022/11/22 02:32:12;;;;;;;11.63;3.27;;;9.10;90.80;;;;;;4942656;29;20214;-96
2022/11/22 02:35:02;;;;;;;12.93;3.43;;;9.00;90.80;;;;;;4955612;28;20188;-96
2022/11/22 02:37:39;;;;;;;9.50;2.50;;;9.00;90.80;;;;;;4949944;29;20264;-96
2022/11/22 02:40:20;;;;;;;12.27;3.17;;;9.00;90.90;;;;;;4946027;29;20207;-95
2022/11/22 02:43:00;;;;;;;12.70;3.63;;;9.00;91.00;;;;;;4948985;29;20928;-94
2022/11/22 02:45:57;;;;;;;13.33;3.80;;;9.00;91.00;;;;;;4949649;29;20241;-96
2022/11/22 02:51:43;;;;;;;13.70;3.67;;;9.00;91.10;;;;;;4948230;29;20204;-96
2022/11/22 02:54:39;;;;;;;12.23;3.47;;;9.00;91.00;;;;;;4946804;29;20290;-95
2022/11/22 02:57:10;;;;;;;10.23;2.90;;;8.90;91.00;;;;;;4947254;29;20212;-96
2022/11/22 03:00:16;;;;;;;13.10;3.73;;;8.90;90.90;;;;;;4945910;29;20199;-96
2022/11/22 03:02:46;;;;;;;17.63;4.23;;;8.90;91.00;;;;;;4937757;29;21133;-96
2022/11/22 03:05:16;;;;;;;10.30;2.87;;;8.90;91.00;;;;;;4950828;29;20667;-95
2022/11/22 03:07:49;;;;;;;8.93;3.07;;;8.90;91.00;;;;;;4941402;29;20283;-96
2022/11/22 03:10:17;;;;;;;10.77;2.77;;;8.90;91.10;;;;;;4941478;29;20220;-95
2022/11/22 03:12:50;;;;;;;13.07;3.33;;;8.80;91.10;;;;;;4950337;29;20266;-95
2022/11/22 03:15:33;;;;;;;13.13;3.50;;;8.90;91.10;;;;;;4951470;29;20284;-96
2022/11/22 03:18:02;;;;;;;20.00;4.77;;;8.90;91.20;;;;;;4948452;29;20211;-95
2022/11/22 03:20:33;;;;;;;9.73;2.43;;;8.80;91.20;;;;;;4945770;29;20215;-95
2022/11/22 03:23:04;;;;;;;11.77;3.57;;;8.80;91.10;;;;;;4938375;29;20210;-95
2022/11/22 03:25:57;;;;;;;12.53;3.67;;;8.80;91.10;;;;;;4952346;29;20215;-96
2022/11/22 03:28:31;;;;;;;10.00;3.03;;;8.80;91.20;;;;;;4942578;29;20706;-96
2022/11/22 03:31:22;;;;;;;16.27;4.00;;;8.80;91.10;;;;;;4953311;29;20198;-96
2022/11/22 03:33:56;;;;;;;9.23;2.67;;;8.70;91.20;;;;;;4951323;29;20236;-96
2022/11/22 03:39:40;;;;;;;9.63;3.07;;;8.80;91.30;;;;;;4953151;29;20225;-95
2022/11/22 03:45:46;;;;;;;13.93;3.77;;;8.70;91.30;;;;;;4947415;29;20207;-95
2022/11/22 03:48:23;;;;;;;14.00;4.17;;;8.70;91.40;;;;;;4946392;29;20218;-95
2022/11/22 03:50:51;;;;;;;15.60;4.60;;;8.80;91.50;;;;;;4944982;29;20266;-94
2022/11/22 03:56:14;;;;;;;10.27;3.00;;;8.70;91.50;;;;;;5088558;23;20268;-96
2022/11/22 03:58:50;;;;;;;9.67;2.90;;;8.80;91.50;;;;;;4985201;28;20216;-94
2022/11/22 04:01:46;;;;;;;16.80;4.23;;;8.70;91.50;;;;;;4987976;28;20721;-96
2022/11/22 04:04:21;;;;;;;10.77;3.10;;;8.80;91.50;;;;;;4986539;28;20209;-96
2022/11/22 04:10:11;;;;;;;7.23;2.50;;;8.80;91.40;;;;;;4994623;28;20207;-96
2022/11/22 04:16:08;;;;;;;12.67;3.67;;;8.80;91.40;;;;;;4995301;28;20215;-96
2022/11/22 04:27:07;;;;;;;10.63;3.23;;;8.80;91.30;;;;;;4964678;28;20250;-96
2022/11/22 04:29:50;;;;;;;;;;;;;;;;;;;;;
2022/11/22 04:35:17;;;;;;;17.40;3.90;;;8.80;91.30;;;;;;5155183;23;20282;-96
2022/11/22 04:45:41;;;;;;;24.87;6.60;;;8.80;91.50;;;;;;5491310;23;20226;-96
2022/11/22 04:48:12;;;;;;;50.53;13.43;;;8.90;91.50;;;;;;5380155;23;20268;-96
2022/11/22 04:57:02;;;;;;;16.40;4.60;;;8.90;91.50;;;;;;5624666;23;20227;-96
2022/11/22 05:05:25;;;;;;;9.33;3.07;;;8.90;91.40;;;;;;5220896;23;20249;-96
2022/11/22 05:07:54;;;;;;;12.27;2.77;;;8.90;91.40;;;;;;4979838;28;20221;-95
2022/11/22 05:10:55;;;;;;;13.17;3.63;;;8.90;91.40;;;;;;4979023;28;20211;-96
2022/11/22 05:16:52;;;;;;;19.80;4.97;;;8.90;91.30;;;;;;4970167;28;20230;-96
2022/11/22 05:29:54;;;;;;;7.83;2.80;;;8.90;91.10;;;;;;5080939;23;20272;-95
2022/11/22 05:32:45;;;;;;;10.93;2.40;;;8.90;91.10;;;;;;4975773;28;20197;-96
2022/11/22 05:35:23;;;;;;;8.60;2.73;;;8.90;91.20;;;;;;4974016;28;20260;-96
2022/11/22 05:38:10;;;;;;;7.10;2.10;;;8.80;91.00;;;;;;4970976;28;20221;-96
2022/11/22 05:40:51;;;;;;;5.47;2.20;;;8.80;90.90;;;;;;4954493;29;20265;-96
2022/11/22 05:43:40;;;;;;;15.37;4.30;;;8.80;90.90;;;;;;4969600;28;20206;-96
2022/11/22 05:46:17;;;;;;;11.23;3.57;;;8.80;90.90;;;;;;4976421;28;20228;-96
2022/11/22 05:49:06;;;;;;;11.63;3.43;;;8.80;91.00;;;;;;4998264;23;20241;-95
2022/11/22 05:51:42;;;;;;;33.77;8.80;;;8.70;91.00;;;;;;5004660;23;20238;-96
2022/11/22 05:54:30;;;;;;;9.53;2.80;;;8.70;91.40;;;;;;4995474;28;20203;-96
2022/11/22 05:57:43;;;;;;;7.10;2.10;;;8.70;91.10;;;;;;4992177;28;20275;-96
2022/11/22 06:00:36;;;;;;;12.13;3.17;;;8.70;91.20;;;;;;4982536;28;20306;-94
2022/11/22 06:03:08;;;;;;;5.83;2.03;;;8.70;91.10;;;;;;4976473;28;20207;-96
2022/11/22 06:05:55;;;;;;;5.77;2.47;;;8.70;91.10;;;;;;4978820;28;20206;-96
2022/11/22 06:08:22;;;;;;;16.27;3.90;;;8.70;91.10;;;;;;4977106;28;20206;-96
2022/11/22 06:11:38;;;;;;;8.63;2.63;;;8.70;91.40;;;;;;4974311;28;20681;-96
2022/11/22 06:14:09;;;;;;;9.37;2.80;;;8.70;91.10;;;;;;4975357;28;20214;-95
2022/11/22 06:17:03;;;;;;;9.57;2.73;;;8.70;91.10;;;;;;4980714;28;20219;-96
2022/11/22 06:19:53;;;;;;;19.87;4.83;;;8.70;91.20;;;;;;4969707;28;20213;-96
2022/11/22 06:22:29;;;;;;;12.73;3.83;;;8.70;91.10;;;;;;4981291;28;20205;-96
2022/11/22 06:25:06;;;;;;;12.07;3.17;;;8.70;91.00;;;;;;4978402;28;20215;-96
2022/11/22 06:27:40;;;;;;;10.93;2.97;;;8.70;91.10;;;;;;4980307;28;20241;-96
2022/11/22 06:30:19;;;;;;;10.03;3.27;;;8.70;91.00;;;;;;4985005;28;20217;-96
2022/11/22 06:32:51;;;;;;;11.03;2.87;;;8.70;91.00;;;;;;4980682;28;20248;-96
2022/11/22 06:35:34;;;;;;;7.73;2.43;;;8.70;90.80;;;;;;4981892;28;20197;-96
2022/11/22 06:38:25;;;;;;;9.57;2.93;;;8.70;90.90;;;;;;4986000;28;20213;-95
2022/11/22 06:41:02;;;;;;;7.47;2.43;;;8.70;90.90;;;;;;4985687;28;20215;-95
2022/11/22 06:43:43;;;;;;;14.47;3.73;;;8.70;90.90;;;;;;4983685;28;20206;-96
2022/11/22 06:46:27;;;;;;;13.17;2.93;;;8.70;90.90;;;;;;4987050;28;20223;-95
2022/11/22 06:52:36;;;;;;;5.60;2.30;;;8.70;91.00;;;;;;4988572;28;21115;-96
2022/11/22 06:55:12;;;;;;;6.47;1.93;;;8.60;91.00;;;;;;4990079;28;20304;-96
2022/11/22 06:57:53;;;;;;;14.13;3.13;;;8.60;91.10;;;;;;4988696;28;20191;-95
2022/11/22 07:00:30;;;;;;;13.10;4.10;;;8.60;91.10;;;;;;4990603;28;20188;-96
2022/11/22 07:03:00;;;;;;;11.20;3.63;;;8.60;91.20;;;;;;4989222;28;20266;-95
2022/11/22 07:05:33;;;;;;;12.60;3.87;;;8.60;91.30;;;;;;4988658;28;20209;-93
2022/11/22 07:08:18;;;;;;;12.80;3.93;;;8.60;91.50;;;;;;4993158;28;20219;-95
2022/11/22 07:10:48;;;;;;;15.90;4.73;;;8.60;91.40;;;;;;4978636;28;20200;-93
2022/11/22 07:13:16;;;;;;;14.93;4.47;;;8.60;91.40;;;;;;4968748;28;20213;-94
2022/11/22 07:15:57;;;;;;;10.17;3.33;;;8.60;91.50;;;;;;4976696;28;20202;-95
2022/11/22 07:18:27;;;;;;;13.83;4.17;;;8.60;91.70;;;;;;4973710;28;20212;-96
2022/11/22 07:21:04;;;;;;;8.20;2.87;;;8.60;91.70;;;;;;4994058;28;20231;-95
2022/11/22 07:23:33;;;;;;;11.40;3.43;;;8.60;92.10;;;;;;4995068;28;20209;-94
2022/11/22 07:26:14;;;;;;;7.10;2.63;;;8.60;91.70;;;;;;4994284;28;20202;-94
2022/11/22 07:28:58;;;;;;;8.57;2.67;;;8.60;91.90;;;;;;4978672;28;20210;-94
2022/11/22 07:31:30;;;;;;;10.37;3.30;;;8.70;91.80;;;;;;4980666;28;20210;-95
2022/11/22 07:34:03;;;;;;;14.17;3.33;;;8.70;91.80;;;;;;4980670;28;20211;-94
2022/11/22 07:36:41;;;;;;;12.23;3.43;;;8.70;91.90;;;;;;4968909;28;20212;-94
2022/11/22 07:39:15;;;;;;;13.23;3.97;;;8.70;92.00;;;;;;4996539;28;20192;-93
2022/11/22 07:41:42;;;;;;;12.70;4.03;;;8.70;91.90;;;;;;4996699;28;20588;-94
2022/11/22 07:44:12;;;;;;;10.27;3.20;;;8.70;91.90;;;;;;4984319;28;20568;-96
2022/11/22 07:46:41;;;;;;;14.67;3.27;;;8.80;91.90;;;;;;4979094;28;20717;-93
2022/11/22 07:49:22;;;;;;;11.80;3.40;;;8.80;91.80;;;;;;4982014;28;20204;-94
2022/11/22 07:51:49;;;;;;;6.93;2.40;;;8.80;91.80;;;;;;4983681;28;20717;-95
2022/11/22 07:54:22;;;;;;;10.30;3.83;;;8.90;91.70;;;;;;4982241;28;20229;-95
2022/11/22 07:57:08;;;;;;;4.70;2.20;;;8.90;91.70;;;;;;4968326;28;20205;-94
2022/11/22 07:59:39;;;;;;;4.93;1.90;;;8.90;91.90;;;;;;4979966;28;20735;-95
2022/11/22 08:02:29;;;;;;;6.27;2.77;;;8.90;91.60;;;;;;4980761;28;20223;-94
2022/11/22 08:05:11;;;;;;;8.23;2.83;;;9.00;91.80;;;;;;4979593;28;20685;-94
2022/11/22 08:07:58;;;;;;;4.00;1.77;;;9.00;91.50;;;;;;4979960;28;20216;-93
2022/11/22 08:10:49;;;;;;;10.37;3.13;;;9.00;91.50;;;;;;4989683;28;20212;-93
2022/11/22 08:13:37;;;;;;;5.47;2.33;;;9.00;91.40;;;;;;4981557;28;20226;-93
2022/11/22 08:16:12;;;;;;;7.57;2.70;;;9.00;91.40;;;;;;4965231;28;20211;-94
2022/11/22 08:18:42;;;;;;;10.97;3.17;;;9.00;91.40;;;;;;4981753;28;20213;-95
2022/11/22 08:21:18;;;;;;;6.10;2.33;;;9.00;91.40;;;;;;4982719;28;20209;-95
2022/11/22 08:23:51;;;;;;;12.30;3.57;;;9.10;91.60;;;;;;4981502;28;20281;-96
2022/11/22 08:26:21;;;;;;;5.13;2.00;;;9.10;91.60;;;;;;4975114;28;20191;-95
2022/11/22 08:28:55;;;;;;;6.60;2.63;;;9.10;91.60;;;;;;4980027;28;20709;-94
2022/11/22 08:31:23;;;;;;;13.03;4.03;;;9.10;91.70;;;;;;4993093;28;20229;-96
2022/11/22 08:34:26;;;;;;;5.23;1.63;;;9.20;91.70;;;;;;4983468;28;20209;-96
2022/11/22 08:37:10;;;;;;;4.33;2.20;;;9.10;91.80;;;;;;4965641;28;20209;-96
2022/11/22 08:39:49;;;;;;;6.10;2.27;;;9.20;91.80;;;;;;4979624;28;20298;-96
2022/11/22 08:42:18;;;;;;;11.40;3.20;;;9.20;91.80;;;;;;4984067;28;20272;-96
2022/11/22 08:44:54;;;;;;;9.30;3.03;;;9.20;91.90;;;;;;4989784;28;20264;-96
2022/11/22 08:50:06;;;;;;;7.87;2.70;;;9.30;91.90;;;;;;4986072;28;20205;-95
2022/11/22 08:52:35;;;;;;;7.17;2.80;;;9.30;92.00;;;;;;4959668;28;20201;-96
2022/11/22 08:55:05;;;;;;;8.60;2.40;;;9.40;92.30;;;;;;4982516;28;20248;-95
2022/11/22 08:57:34;;;;;;;10.77;3.03;;;9.40;91.90;;;;;;4985533;28;20204;-96
2022/11/22 09:00:13;;;;;;;4.50;1.90;;;9.40;91.90;;;;;;4983301;28;20208;-94
2022/11/22 09:02:47;;;;;;;6.20;2.77;;;9.50;91.90;;;;;;4989704;28;20210;-95
2022/11/22 09:05:28;;;;;;;4.70;1.73;;;9.50;91.90;;;;;;4991706;28;20203;-95
2022/11/22 09:08:20;;;;;;;9.20;2.53;;;9.50;91.90;;;;;;4985790;28;20259;-96
2022/11/22 09:10:51;;;;;;;12.67;2.60;;;9.60;91.90;;;;;;4960500;28;20650;-95
2022/11/22 09:13:23;;;;;;;3.83;1.63;;;9.60;91.90;;;;;;4980095;28;20201;-95
2022/11/22 09:16:15;;;;;;;8.17;3.37;;;9.60;91.90;;;;;;4980821;28;20207;-95
2022/11/22 09:18:48;;;;;;;9.43;1.93;;;9.70;91.90;;;;;;4982688;28;20209;-96
2022/11/22 09:21:21;;;;;;;5.10;2.17;;;9.70;91.90;;;;;;4979833;28;20205;-95
2022/11/22 09:23:56;;;;;;;5.23;1.87;;;9.70;91.90;;;;;;4981585;28;20213;-96
2022/11/22 09:26:24;;;;;;;2.80;1.57;;;9.80;91.90;;;;;;4979407;28;20312;-96
2022/11/22 09:29:02;;;;;;;6.83;2.27;;;9.80;91.90;;;;;;4983868;28;20230;-96
2022/11/22 09:31:49;;;;;;;11.53;3.33;;;9.80;91.80;;;;;;4980888;28;20279;-95
2022/11/22 09:34:23;;;;;;;8.90;3.20;;;9.90;91.80;;;;;;4981071;28;20233;-95
2022/11/22 09:36:56;;;;;;;5.20;2.13;;;9.90;91.60;;;;;;4991390;28;20198;-95
2022/11/22 09:39:28;;;;;;;7.93;2.70;;;9.90;91.70;;;;;;4993999;28;20207;-96
2022/11/22 09:42:37;;;;;;;4.67;2.20;;;9.90;91.60;;;;;;4993259;28;20210;-95
2022/11/22 09:45:51;;;;;;;14.87;4.57;;;10.00;91.20;;;;;;4923627;29;20704;-96
2022/11/22 09:48:41;;;;;;;7.97;3.00;;;10.00;91.20;;;;;;4922247;29;20303;-96
2022/11/22 09:51:13;;;;;;;10.43;3.10;;;10.00;91.20;;;;;;4921051;29;20224;-95
2022/11/22 09:53:46;;;;;;;18.30;4.93;;;10.00;91.20;;;;;;4978108;28;20219;-95
2022/11/22 09:56:24;;;;;;;12.87;3.40;;;10.00;91.10;;;;;;4989608;28;20298;-96
2022/11/22 09:58:58;;;;;;;8.10;2.77;;;10.10;91.10;;;;;;4991905;28;20206;-94
2022/11/22 10:01:40;;;;;;;9.63;3.57;;;10.10;91.10;;;;;;4979936;28;20210;-94
2022/11/22 10:04:17;;;;;;;10.13;3.80;;;10.10;91.10;;;;;;4979032;28;20209;-94
2022/11/22 10:06:52;;;;;;;9.80;3.33;;;10.20;91.30;;;;;;4975198;28;20245;-94
2022/11/22 10:09:38;;;;;;;7.83;3.10;;;10.20;91.30;;;;;;4975889;28;20227;-93
2022/11/22 10:12:12;;;;;;;9.03;2.90;;;10.20;91.30;;;;;;4977587;28;20202;-93
2022/11/22 10:14:52;;;;;;;9.03;3.57;;;10.30;91.00;;;;;;4976519;28;20211;-94
2022/11/22 10:17:38;;;;;;;12.47;3.60;;;10.30;91.10;;;;;;4975917;28;20237;-95
2022/11/22 10:20:12;;;;;;;6.27;2.60;;;10.30;91.20;;;;;;4967927;28;20558;-92
2022/11/22 10:22:45;;;;;;;16.70;4.10;;;10.40;91.20;;;;;;4975581;28;20210;-92
2022/11/22 10:25:19;;;;;;;7.60;3.13;;;10.40;91.20;;;;;;4979179;28;20222;-93
2022/11/22 10:27:55;;;;;;;9.13;3.37;;;10.40;91.20;;;;;;4986507;28;20264;-94
2022/11/22 10:30:24;;;;;;;9.03;3.07;;;10.50;91.00;;;;;;4983325;28;20202;-94
2022/11/22 10:33:05;;;;;;;13.33;3.03;;;10.50;91.10;;;;;;4984949;28;20199;-94
2022/11/22 10:35:57;;;;;;;10.57;3.43;;;10.50;91.00;;;;;;4990107;28;20191;-95
2022/11/22 10:41:45;;;;;;;7.20;2.93;;;10.60;91.20;;;;;;5632365;23;20310;-95
2022/11/22 10:44:24;;;;;;;9.57;3.13;;;10.70;91.10;;;;;;4952926;28;20238;-93
2022/11/22 10:47:00;;;;;;;9.13;3.30;;;10.70;91.00;;;;;;4953955;28;20207;-91
2022/11/22 10:49:41;;;;;;;9.83;3.67;;;10.80;91.00;;;;;;4952179;28;20235;-94
2022/11/22 10:52:17;;;;;;;8.40;3.50;;;10.80;90.60;;;;;;4959719;28;20215;-93
2022/11/22 10:54:56;;;;;;;10.33;3.57;;;10.80;90.50;;;;;;4960777;28;20210;-93
2022/11/22 10:57:33;;;;;;;16.33;4.47;;;10.90;90.50;;;;;;4939125;29;20283;-93
2022/11/22 11:00:16;;;;;;;6.33;2.70;;;10.90;90.40;;;;;;4940514;29;20203;-96
2022/11/22 11:03:16;;;;;;;8.40;2.97;;;10.90;90.50;;;;;;4945141;29;20196;-95
2022/11/22 11:05:49;;;;;;;7.73;2.90;;;10.90;90.50;;;;;;4944480;29;20203;-95
2022/11/22 11:08:41;;;;;;;5.63;2.27;;;11.00;90.50;;;;;;4966244;28;20262;-95
2022/11/22 11:11:16;;;;;;;5.90;2.27;;;11.10;90.40;;;;;;4978390;28;20206;-94
2022/11/22 11:13:46;;;;;;;8.23;3.03;;;11.10;90.30;;;;;;4970075;28;20223;-91
2022/11/22 11:16:21;;;;;;;5.87;2.70;;;11.10;90.30;;;;;;4965390;28;20208;-93
2022/11/22 11:18:55;;;;;;;9.37;3.60;;;11.20;90.20;;;;;;4962868;28;20199;-93
2022/11/22 11:21:25;;;;;;;9.70;3.03;;;11.20;90.20;;;;;;4961134;28;20306;-94
2022/11/22 11:24:12;;;;;;;7.10;3.00;;;11.20;90.50;;;;;;4966651;28;20227;-94
2022/11/22 11:26:54;;;;;;;4.33;2.07;;;11.20;90.10;;;;;;4965863;28;20248;-94
2022/11/22 11:29:37;;;;;;;4.23;1.93;;;11.30;89.00;;;;;;4964424;29;20239;-95
2022/11/22 11:32:15;;;;;;;5.73;1.97;;;11.40;89.50;;;;;;4972583;28;20283;-96
2022/11/22 11:34:53;;;;;;;6.87;2.77;;;11.30;89.90;;;;;;4972159;28;20203;-94
2022/11/22 11:37:33;;;;;;;5.20;2.47;;;11.40;89.50;;;;;;4974044;28;20207;-95
2022/11/22 11:40:01;;;;;;;6.13;2.83;;;11.40;89.70;;;;;;4974156;28;20210;-93
2022/11/22 11:42:33;;;;;;;7.80;3.23;;;11.50;89.50;;;;;;4974242;28;20224;-94
2022/11/22 11:45:29;;;;;;;7.00;3.20;;;11.50;89.20;;;;;;4971459;28;20214;-94
2022/11/22 11:48:04;;;;;;;2.80;2.33;;;11.60;89.30;;;;;;4973079;28;20215;-92
2022/11/22 11:50:44;;;;;;;8.03;4.33;;;11.60;89.70;;;;;;4968860;28;20207;-95
2022/11/22 11:53:27;;;;;;;5.97;3.90;;;11.60;89.30;;;;;;4972784;28;20267;-92
2022/11/22 11:56:17;;;;;;;7.23;4.17;;;11.60;90.00;;;;;;4973692;28;20222;-94
2022/11/22 11:58:51;;;;;;;12.70;5.33;;;11.70;90.10;;;;;;4970086;28;20226;-90
2022/11/22 12:01:37;;;;;;;5.07;3.87;;;11.70;90.10;;;;;;4963737;28;20203;-91
2022/11/22 12:04:16;;;;;;;17.77;6.07;;;11.80;89.70;;;;;;4966258;28;20254;-93
2022/11/22 12:06:57;;;;;;;8.60;4.20;;;11.80;89.60;;;;;;4950061;29;20251;-93
2022/11/22 12:09:36;;;;;;;6.97;3.57;;;11.90;89.50;;;;;;4951681;29;20232;-91
2022/11/22 12:12:31;;;;;;;8.03;3.73;;;11.90;89.70;;;;;;4961123;29;20560;-94
2022/11/22 12:15:21;;;;;;;5.13;3.07;;;11.90;89.60;;;;;;4956511;28;20602;-96
2022/11/22 12:18:01;;;;;;;5.90;3.40;;;12.00;89.80;;;;;;4944026;29;20704;-93
2022/11/22 12:20:44;;;;;;;12.77;4.47;;;12.00;89.80;;;;;;4968449;29;20218;-94
2022/11/22 12:23:32;;;;;;;17.63;4.73;;;12.10;89.70;;;;;;4962087;28;20204;-96
2022/11/22 12:26:17;;;;;;;8.33;3.17;;;12.10;88.70;;;;;;4958780;28;20916;-95
2022/11/22 12:28:57;;;;;;;18.17;4.27;;;12.20;88.30;;;;;;4961212;28;20231;-96
2022/11/22 12:31:40;;;;;;;9.17;3.90;;;12.10;88.40;;;;;;4946202;29;20232;-96
2022/11/22 12:34:32;;;;;;;3.07;2.07;;;12.20;88.50;;;;;;4963285;29;20219;-95
2022/11/22 12:37:18;;;;;;;4.77;2.40;;;12.20;88.60;;;;;;4966252;28;20203;-94
2022/11/22 12:40:00;;;;;;;9.73;3.83;;;12.20;88.80;;;;;;4966304;28;20204;-96
2022/11/22 12:42:44;;;;;;;7.27;3.33;;;12.20;88.80;;;;;;4971256;28;20303;-96
2022/11/22 12:45:27;;;;;;;8.27;3.53;;;12.20;88.60;;;;;;4963036;28;20212;-94
2022/11/22 12:48:08;;;;;;;8.63;3.43;;;12.20;88.80;;;;;;4958138;28;20267;-92
2022/11/22 12:50:47;;;;;;;8.27;3.37;;;12.20;88.90;;;;;;4956601;28;20211;-92
2022/11/22 12:53:31;;;;;;;7.23;2.93;;;12.20;89.10;;;;;;4956978;28;20231;-93
2022/11/22 12:56:07;;;;;;;7.80;3.50;;;12.30;89.30;;;;;;4958244;28;20215;-95
2022/11/22 12:58:40;;;;;;;5.83;2.87;;;12.20;89.10;;;;;;4959087;28;20225;-94
2022/11/22 13:01:19;;;;;;;5.20;2.90;;;12.30;89.80;;;;;;4953362;28;20204;-95
2022/11/22 13:04:15;;;;;;;7.23;3.63;;;12.30;89.60;;;;;;4959999;28;20215;-96
2022/11/22 13:06:54;;;;;;;12.10;4.60;;;12.30;90.00;;;;;;4957133;29;20212;-93
2022/11/22 13:09:32;;;;;;;10.17;4.07;;;12.30;90.00;;;;;;4955331;28;20243;-94
2022/11/22 13:12:08;;;;;;;21.50;4.60;;;12.30;90.00;;;;;;4938711;29;20296;-94
2022/11/22 13:15:00;;;;;;;14.20;4.77;;;12.30;90.20;;;;;;4949781;29;20266;-95
2022/11/22 13:17:37;;;;;;;12.10;4.07;;;12.30;90.40;;;;;;4969800;29;20202;-93
2022/11/22 13:20:18;;;;;;;12.97;3.80;;;12.40;90.40;;;;;;4952946;28;20630;-94
2022/11/22 13:23:17;;;;;;;15.10;3.77;;;12.40;90.50;;;;;;4936295;29;20607;-95
2022/11/22 13:25:56;;;;;;;15.70;5.07;;;12.50;90.60;;;;;;4937744;29;20227;-94
2022/11/22 13:28:32;;;;;;;10.77;3.60;;;12.40;90.60;;;;;;4939750;29;20215;-96
2022/11/22 13:31:15;;;;;;;15.10;3.73;;;12.50;90.60;;;;;;4941111;29;20197;-92
2022/11/22 13:33:52;;;;;;;22.67;5.57;;;12.50;90.80;;;;;;4944445;29;20204;-94
2022/11/22 13:36:59;;;;;;;;;;;;;;;;;;;;;
2022/11/22 13:39:42;;;;;;;9.33;2.40;;;12.50;91.00;;;;;;4960477;29;20216;-96
2022/11/22 13:42:19;;;;;;;14.63;4.83;;;12.60;91.00;;;;;;4961119;28;20752;-93
2022/11/22 13:45:06;;;;;;;9.67;3.27;;;12.60;91.00;;;;;;4959874;28;20258;-95
2022/11/22 13:47:53;;;;;;;11.20;3.93;;;12.60;90.90;;;;;;4941023;29;20220;-92
2022/11/22 13:51:10;;;;;;;12.30;4.10;;;12.70;90.90;;;;;;4950231;29;20334;-94
2022/11/22 13:53:42;;;;;;;12.43;4.27;;;12.70;90.80;;;;;;4945374;28;20210;-94
2022/11/22 13:56:50;;;;;;;10.20;3.17;;;12.70;90.60;;;;;;4939697;29;20213;-95
2022/11/22 13:59:29;;;;;;;14.10;4.17;;;12.80;90.80;;;;;;4937656;29;20224;-93
2022/11/22 14:02:03;;;;;;;8.43;3.17;;;12.80;90.70;;;;;;4937855;29;20212;-94
2022/11/22 14:04:46;;;;;;;8.83;2.83;;;12.80;90.80;;;;;;4944268;29;20236;-94
2022/11/22 14:07:51;;;;;;;12.53;3.60;;;12.80;90.80;;;;;;4955421;28;20212;-94
2022/11/22 14:10:50;;;;;;;8.00;2.53;;;12.80;90.80;;;;;;4937602;29;20239;-94
2022/11/22 14:13:47;;;;;;;8.30;2.97;;;12.90;90.80;;;;;;4949627;29;20656;-94
2022/11/22 14:16:26;;;;;;;8.27;2.80;;;12.90;90.70;;;;;;4955070;28;20241;-95
2022/11/22 14:19:11;;;;;;;12.67;4.23;;;13.00;90.60;;;;;;4954343;28;20578;-94
2022/11/22 14:25:09;;;;;;;10.67;3.80;;;13.10;90.30;;;;;;4953073;28;20207;-94
2022/11/22 14:27:51;;;;;;;10.43;3.43;;;13.10;90.40;;;;;;4955287;28;20289;-93
2022/11/22 14:30:22;;;;;;;13.97;4.47;;;13.10;90.40;;;;;;4948216;28;20243;-94
2022/11/22 14:33:02;;;;;;;8.30;2.97;;;13.10;90.70;;;;;;4934953;29;20233;-92
2022/11/22 14:35:34;;;;;;;11.67;3.47;;;13.10;90.40;;;;;;4942623;29;20269;-92
2022/11/22 14:38:29;;;;;;;13.70;4.20;;;13.10;90.20;;;;;;4943100;28;20203;-94
2022/11/22 14:41:30;;;;;;;13.30;3.50;;;13.20;90.20;;;;;;4930472;29;20759;-92
2022/11/22 14:44:03;;;;;;;10.07;2.93;;;13.20;90.00;;;;;;4953225;28;20219;-93
2022/11/22 14:46:40;;;;;;;12.00;3.87;;;13.20;89.60;;;;;;4949887;28;20265;-94
2022/11/22 14:49:16;;;;;;;9.00;2.93;;;13.20;88.90;;;;;;4955717;29;20675;-95
2022/11/22 14:51:56;;;;;;;13.40;4.97;;;13.20;87.60;;;;;;4939141;28;20205;-93
2022/11/22 14:54:43;;;;;;;10.70;3.67;;;13.20;87.60;;;;;;4952516;29;20199;-93
2022/11/22 14:57:24;;;;;;;10.53;3.70;;;13.20;87.60;;;;;;4952294;28;20664;-94
2022/11/22 15:00:27;;;;;;;8.70;2.77;;;13.20;87.00;;;;;;4953371;28;20954;-92
2022/11/22 15:03:18;;;;;;;12.43;4.07;;;13.20;86.50;;;;;;4946327;28;20203;-95
2022/11/22 15:06:17;;;;;;;9.97;3.57;;;13.20;86.60;;;;;;4954530;28;20566;-95
2022/11/22 15:08:53;;;;;;;13.57;4.23;;;13.10;85.70;;;;;;4933942;28;20215;-95
2022/11/22 15:11:48;;;;;;;13.23;3.77;;;13.10;85.80;;;;;;4954434;29;20215;-94
2022/11/22 15:14:56;;;;;;;14.63;4.37;;;13.10;85.90;;;;;;4938727;29;20270;-92